Time;durP1;ratioP1;P1;durP2;ratioP2;P2;SDS_P1;SDS_P2;PMS_P1;PMS_P2;Temp;Humidity;BMP_temperature;BMP_pressure;BME280_temperature;BME280_humidity;BME280_pressure;Samples;Min_cycle;Max_cycle;Signal;HPM_P1;HPM_P2
2021/05/27 00:00:36;;;;;;;0.10;0.10;;;;;;;;;;5033529;28;20042;-84
2021/05/27 00:03:03;;;;;;;0.10;0.10;;;;;;;;;;5032314;28;20160;-84
2021/05/27 00:05:29;;;;;;;0.10;0.10;;;;;;;;;;5048777;28;20065;-83
2021/05/27 00:07:55;;;;;;;0.10;0.10;;;;;;;;;;5033468;28;20038;-83
2021/05/27 00:10:22;;;;;;;0.10;0.10;;;;;;;;;;5048603;28;20037;-83
2021/05/27 00:12:48;;;;;;;1.30;0.17;;;;;;;;;;5031925;28;20037;-84
2021/05/27 00:15:15;;;;;;;0.10;0.10;;;;;;;;;;5033102;28;20474;-84
2021/05/27 00:17:41;;;;;;;0.20;0.20;;;;;;;;;;5031889;28;20045;-84
2021/05/27 00:20:08;;;;;;;0.10;0.10;;;;;;;;;;5048444;28;20038;-84
2021/05/27 00:22:34;;;;;;;0.10;0.10;;;;;;;;;;5033015;28;20120;-84
2021/05/27 00:25:00;;;;;;;0.20;0.20;;;;;;;;;;5048206;28;20041;-84
2021/05/27 00:27:26;;;;;;;0.10;0.10;;;;;;;;;;5031561;28;20348;-84
2021/05/27 00:29:52;;;;;;;0.20;0.20;;;;;;;;;;5031706;28;20065;-83
2021/05/27 00:32:18;;;;;;;0.20;0.20;;;;;;;;;;5031709;28;20052;-84
2021/05/27 00:34:45;;;;;;;0.20;0.20;;;;;;;;;;5048246;28;20034;-83
2021/05/27 00:37:12;;;;;;;0.10;0.10;;;;;;;;;;5031607;28;20289;-84
2021/05/27 00:39:38;;;;;;;0.10;0.10;;;;;;;;;;5032488;28;20045;-84
2021/05/27 00:42:05;;;;;;;0.15;0.15;;;;;;;;;;5031594;28;20396;-84
2021/05/27 00:44:31;;;;;;;0.65;0.20;;;;;;;;;;5047942;28;20068;-85
2021/05/27 00:46:58;;;;;;;0.10;0.10;;;;;;;;;;5032502;28;20065;-84
2021/05/27 00:49:24;;;;;;;0.10;0.10;;;;;;;;;;5047824;28;20091;-86
2021/05/27 00:51:50;;;;;;;0.20;0.20;;;;;;;;;;5047842;28;20124;-84
2021/05/27 00:54:17;;;;;;;0.20;0.20;;;;;;;;;;5031301;28;20041;-83
2021/05/27 00:56:43;;;;;;;0.20;0.20;;;;;;;;;;5047449;28;20064;-85
2021/05/27 00:59:09;;;;;;;0.52;0.32;;;;;;;;;;5047950;28;20045;-84
2021/05/27 01:01:35;;;;;;;0.10;0.10;;;;;;;;;;5047848;28;20044;-84
2021/05/27 01:04:01;;;;;;;0.10;0.10;;;;;;;;;;5032435;28;20513;-85
2021/05/27 01:06:27;;;;;;;0.10;0.10;;;;;;;;;;5047557;28;20378;-83
2021/05/27 01:08:54;;;;;;;0.10;0.10;;;;;;;;;;5047518;28;20512;-85
2021/05/27 01:11:20;;;;;;;0.20;0.20;;;;;;;;;;5047765;28;20048;-85
2021/05/27 01:13:47;;;;;;;0.10;0.10;;;;;;;;;;5047722;28;20037;-85
2021/05/27 01:16:16;;;;;;;0.10;0.10;;;;;;;;;;5032100;28;20378;-83
2021/05/27 01:18:42;;;;;;;0.10;0.10;;;;;;;;;;5047592;28;20045;-84
2021/05/27 01:21:09;;;;;;;0.50;0.50;;;;;;;;;;5047559;28;20038;-85
2021/05/27 01:23:35;;;;;;;0.10;0.10;;;;;;;;;;5047805;28;20091;-85
2021/05/27 01:26:01;;;;;;;0.35;0.35;;;;;;;;;;5047505;28;20037;-85
2021/05/27 01:28:28;;;;;;;0.20;0.20;;;;;;;;;;5047210;28;20033;-85
2021/05/27 01:30:54;;;;;;;0.22;0.22;;;;;;;;;;5047341;28;20055;-85
2021/05/27 01:33:20;;;;;;;3.33;0.68;;;;;;;;;;5047504;28;20041;-85
2021/05/27 01:35:46;;;;;;;0.30;0.30;;;;;;;;;;5031953;28;20175;-85
2021/05/27 01:38:15;;;;;;;0.40;0.40;;;;;;;;;;5047075;28;20389;-85
2021/05/27 01:40:41;;;;;;;0.20;0.20;;;;;;;;;;5030763;28;20124;-85
2021/05/27 01:43:07;;;;;;;0.10;0.10;;;;;;;;;;5032127;28;20038;-84
2021/05/27 01:45:33;;;;;;;0.20;0.20;;;;;;;;;;5047308;28;20041;-84
2021/05/27 01:47:59;;;;;;;0.13;0.13;;;;;;;;;;5031769;28;20041;-84
2021/05/27 01:50:25;;;;;;;0.38;0.38;;;;;;;;;;5031906;28;20063;-84
2021/05/27 01:52:51;;;;;;;0.17;0.17;;;;;;;;;;5047643;28;20037;-85
2021/05/27 01:55:18;;;;;;;0.10;0.10;;;;;;;;;;5047508;28;20116;-84
2021/05/27 01:57:44;;;;;;;0.10;0.10;;;;;;;;;;5047101;28;20056;-84
2021/05/27 02:00:10;;;;;;;0.20;0.20;;;;;;;;;;5032018;28;20030;-84
2021/05/27 02:02:37;;;;;;;0.20;0.20;;;;;;;;;;5030687;28;20042;-84
2021/05/27 02:05:03;;;;;;;0.32;0.32;;;;;;;;;;5047191;28;20477;-84
2021/05/27 02:07:29;;;;;;;0.57;0.57;;;;;;;;;;5031729;28;20125;-84
2021/05/27 02:09:55;;;;;;;0.13;0.13;;;;;;;;;;5034412;28;20076;-84
2021/05/27 02:12:22;;;;;;;0.75;0.17;;;;;;;;;;5050886;28;20126;-84
2021/05/27 02:14:48;;;;;;;0.10;0.10;;;;;;;;;;5050871;28;20048;-84
2021/05/27 02:17:14;;;;;;;0.20;0.20;;;;;;;;;;5051031;28;20041;-84
2021/05/27 02:19:41;;;;;;;0.65;0.20;;;;;;;;;;5050897;28;20037;-84
2021/05/27 02:22:07;;;;;;;0.55;0.30;;;;;;;;;;5050683;28;20033;-83
2021/05/27 02:24:33;;;;;;;1.08;1.08;;;;;;;;;;5050651;28;20260;-84
2021/05/27 02:26:59;;;;;;;0.20;0.20;;;;;;;;;;5050504;28;20042;-84
2021/05/27 02:29:25;;;;;;;0.20;0.20;;;;;;;;;;5050833;28;20495;-84
2021/05/27 02:31:51;;;;;;;0.50;0.50;;;;;;;;;;5033893;28;20087;-84
2021/05/27 02:34:17;;;;;;;0.10;0.10;;;;;;;;;;5034056;28;20041;-84
2021/05/27 02:36:43;;;;;;;0.10;0.10;;;;;;;;;;5033793;28;20136;-84
2021/05/27 02:39:10;;;;;;;0.10;0.10;;;;;;;;;;5050274;28;20076;-84
2021/05/27 02:41:36;;;;;;;0.22;0.22;;;;;;;;;;5050379;28;20108;-84
2021/05/27 02:44:02;;;;;;;0.10;0.10;;;;;;;;;;5034958;28;20084;-83
2021/05/27 02:46:31;;;;;;;0.10;0.10;;;;;;;;;;5034662;28;20438;-83
2021/05/27 02:48:57;;;;;;;1.88;0.52;;;;;;;;;;5034769;28;20046;-84
2021/05/27 02:51:23;;;;;;;0.20;0.20;;;;;;;;;;5034751;28;20049;-84
2021/05/27 02:53:49;;;;;;;0.20;0.20;;;;;;;;;;5033571;28;20038;-84
2021/05/27 02:56:15;;;;;;;0.20;0.20;;;;;;;;;;5033708;28;20045;-84
2021/05/27 02:58:41;;;;;;;0.40;0.20;;;;;;;;;;5034712;28;20076;-84
2021/05/27 03:01:07;;;;;;;0.13;0.13;;;;;;;;;;5049900;28;20041;-83
2021/05/27 03:03:33;;;;;;;0.10;0.10;;;;;;;;;;5033455;28;20120;-83
2021/05/27 03:05:59;;;;;;;0.20;0.20;;;;;;;;;;5033292;28;20540;-84
2021/05/27 03:08:27;;;;;;;0.20;0.20;;;;;;;;;;5049866;28;20063;-84
2021/05/27 03:11:00;;;;;;;0.15;0.15;;;;;;;;;;5048871;28;20076;-83
2021/05/27 03:13:26;;;;;;;0.15;0.15;;;;;;;;;;5034352;28;20546;-83
2021/05/27 03:15:52;;;;;;;0.30;0.30;;;;;;;;;;5034274;28;20033;-83
2021/05/27 03:18:18;;;;;;;0.10;0.10;;;;;;;;;;5033434;28;20034;-82
2021/05/27 03:20:44;;;;;;;0.10;0.10;;;;;;;;;;5049888;28;20061;-83
2021/05/27 03:23:11;;;;;;;0.20;0.20;;;;;;;;;;5049732;28;20099;-83
2021/05/27 03:25:37;;;;;;;0.15;0.15;;;;;;;;;;5034238;28;20279;-83
2021/05/27 03:28:03;;;;;;;0.10;0.10;;;;;;;;;;5033973;28;20049;-82
2021/05/27 03:30:29;;;;;;;0.10;0.10;;;;;;;;;;5049471;28;20092;-83
2021/05/27 03:32:55;;;;;;;0.10;0.10;;;;;;;;;;5034096;28;20065;-83
2021/05/27 03:35:21;;;;;;;0.10;0.10;;;;;;;;;;5049415;28;20037;-83
2021/05/27 03:37:47;;;;;;;0.10;0.10;;;;;;;;;;5034031;28;20041;-83
2021/05/27 03:40:14;;;;;;;0.10;0.10;;;;;;;;;;5049326;28;20091;-84
2021/05/27 03:42:44;;;;;;;0.10;0.10;;;;;;;;;;5049112;28;20473;-83
2021/05/27 03:45:11;;;;;;;0.10;0.10;;;;;;;;;;5049135;28;20060;-83
2021/05/27 03:47:38;;;;;;;0.10;0.10;;;;;;;;;;5048881;28;20088;-83
2021/05/27 03:50:05;;;;;;;0.10;0.10;;;;;;;;;;5032358;28;20060;-84
2021/05/27 03:52:31;;;;;;;0.20;0.20;;;;;;;;;;5049068;28;20083;-83
2021/05/27 03:54:57;;;;;;;0.10;0.10;;;;;;;;;;5032385;28;20401;-83
2021/05/27 03:57:23;;;;;;;0.10;0.10;;;;;;;;;;5048723;28;20045;-83
2021/05/27 04:02:34;;;;;;;0.50;0.50;;;;;;;;;;5046471;28;20052;-83
2021/05/27 04:07:45;;;;;;;0.10;0.10;;;;;;;;;;5033236;28;20039;-84
2021/05/27 04:10:11;;;;;;;0.10;0.10;;;;;;;;;;5033253;28;20095;-84
2021/05/27 04:12:46;;;;;;;0.10;0.10;;;;;;;;;;5048587;28;20041;-84
2021/05/27 04:15:27;;;;;;;0.17;0.17;;;;;;;;;;5047423;28;20119;-84
2021/05/27 04:17:53;;;;;;;0.20;0.20;;;;;;;;;;5048415;28;20087;-84
2021/05/27 04:20:19;;;;;;;0.10;0.10;;;;;;;;;;5033201;28;20034;-85
2021/05/27 04:22:47;;;;;;;0.25;0.25;;;;;;;;;;5048678;28;20040;-84
2021/05/27 04:25:13;;;;;;;0.10;0.10;;;;;;;;;;5048155;28;20045;-83
2021/05/27 04:27:39;;;;;;;0.45;0.45;;;;;;;;;;5048185;28;20111;-84
2021/05/27 04:30:16;;;;;;;0.45;0.45;;;;;;;;;;5048513;28;20042;-84
2021/05/27 04:35:38;;;;;;;0.10;0.10;;;;;;;;;;5027381;28;20085;-84
2021/05/27 04:38:05;;;;;;;0.10;0.10;;;;;;;;;;5047903;28;20041;-85
2021/05/27 04:40:35;;;;;;;0.10;0.10;;;;;;;;;;5047687;28;20041;-84
2021/05/27 04:43:01;;;;;;;0.10;0.10;;;;;;;;;;5031438;28;20045;-85
2021/05/27 04:45:27;;;;;;;0.10;0.10;;;;;;;;;;5032517;28;20041;-85
2021/05/27 04:47:55;;;;;;;0.10;0.10;;;;;;;;;;5047886;28;20047;-85
2021/05/27 04:50:23;;;;;;;0.10;0.10;;;;;;;;;;5047630;28;20465;-85
2021/05/27 04:52:49;;;;;;;0.10;0.10;;;;;;;;;;5048281;28;20508;-85
2021/05/27 04:55:15;;;;;;;0.25;0.25;;;;;;;;;;5047980;28;20064;-85
2021/05/27 04:57:41;;;;;;;0.10;0.10;;;;;;;;;;5047682;28;20045;-85
2021/05/27 05:00:10;;;;;;;0.20;0.20;;;;;;;;;;5047783;28;20038;-88
2021/05/27 05:02:36;;;;;;;0.10;0.10;;;;;;;;;;5047933;28;20528;-86
2021/05/27 05:05:03;;;;;;;0.10;0.10;;;;;;;;;;5031151;28;20053;-85
2021/05/27 05:07:29;;;;;;;0.20;0.20;;;;;;;;;;5047668;28;20086;-84
2021/05/27 05:09:56;;;;;;;0.20;0.20;;;;;;;;;;5032383;28;20075;-84
2021/05/27 05:12:22;;;;;;;0.10;0.10;;;;;;;;;;5047890;28;20463;-84
2021/05/27 05:14:48;;;;;;;0.73;0.73;;;;;;;;;;5032385;28;20033;-85
2021/05/27 05:17:14;;;;;;;0.10;0.10;;;;;;;;;;5047512;28;20037;-85
2021/05/27 05:19:40;;;;;;;0.20;0.20;;;;;;;;;;5047572;28;20037;-84
2021/05/27 05:22:06;;;;;;;0.20;0.20;;;;;;;;;;5047497;28;20067;-85
2021/05/27 05:24:32;;;;;;;0.20;0.20;;;;;;;;;;5047540;28;20037;-85
2021/05/27 05:26:58;;;;;;;0.15;0.15;;;;;;;;;;5030632;28;20045;-85
2021/05/27 05:29:24;;;;;;;0.20;0.20;;;;;;;;;;5047463;28;20129;-84
2021/05/27 05:31:50;;;;;;;0.10;0.10;;;;;;;;;;5047578;28;20176;-85
2021/05/27 05:34:16;;;;;;;0.13;0.13;;;;;;;;;;5047431;28;20508;-84
2021/05/27 05:36:42;;;;;;;0.10;0.10;;;;;;;;;;5031978;28;20544;-84
2021/05/27 05:39:08;;;;;;;0.10;0.10;;;;;;;;;;5030802;28;20050;-84
2021/05/27 05:41:35;;;;;;;0.10;0.10;;;;;;;;;;5031893;28;20099;-86
2021/05/27 05:44:01;;;;;;;0.10;0.10;;;;;;;;;;5033252;28;20091;-83
2021/05/27 05:46:27;;;;;;;0.10;0.10;;;;;;;;;;5051404;28;20037;-84
2021/05/27 05:48:53;;;;;;;0.10;0.10;;;;;;;;;;5036045;28;20037;-84
2021/05/27 05:51:19;;;;;;;0.10;0.10;;;;;;;;;;5051306;28;20045;-84
2021/05/27 05:53:45;;;;;;;0.10;0.10;;;;;;;;;;5051251;28;20476;-84
2021/05/27 05:56:11;;;;;;;0.30;0.30;;;;;;;;;;5051051;28;20037;-84
2021/05/27 05:58:38;;;;;;;2.90;0.30;;;;;;;;;;5035849;28;20113;-86
2021/05/27 06:01:04;;;;;;;0.20;0.20;;;;;;;;;;5034587;28;20381;-87
2021/05/27 06:03:32;;;;;;;0.10;0.10;;;;;;;;;;5034498;28;20069;-87
2021/05/27 06:05:58;;;;;;;0.10;0.10;;;;;;;;;;5034455;28;20412;-87
2021/05/27 06:08:24;;;;;;;0.10;0.10;;;;;;;;;;5034450;28;20115;-86
2021/05/27 06:10:51;;;;;;;0.10;0.10;;;;;;;;;;5035570;28;20041;-84
2021/05/27 06:13:17;;;;;;;0.20;0.20;;;;;;;;;;5034363;28;20095;-85
2021/05/27 06:15:43;;;;;;;0.10;0.10;;;;;;;;;;5016060;28;20073;-87
2021/05/27 06:18:09;;;;;;;0.20;0.20;;;;;;;;;;5014938;28;20478;-87
2021/05/27 06:20:35;;;;;;;0.15;0.15;;;;;;;;;;5033008;28;20112;-86
2021/05/27 06:23:01;;;;;;;0.10;0.10;;;;;;;;;;5050782;28;20044;-87
2021/05/27 06:25:27;;;;;;;0.10;0.10;;;;;;;;;;5038495;28;20087;-87
2021/05/27 06:27:53;;;;;;;0.10;0.10;;;;;;;;;;5050578;28;20096;-86
2021/05/27 06:30:19;;;;;;;0.52;0.25;;;;;;;;;;5050481;28;20038;-86
2021/05/27 06:32:45;;;;;;;0.10;0.10;;;;;;;;;;5033922;28;20091;-85
2021/05/27 06:35:12;;;;;;;0.20;0.20;;;;;;;;;;5050541;28;20042;-86
2021/05/27 06:37:39;;;;;;;0.10;0.10;;;;;;;;;;5033953;28;20045;-85
2021/05/27 06:40:06;;;;;;;0.20;0.20;;;;;;;;;;5032442;28;20045;-86
2021/05/27 06:42:34;;;;;;;0.20;0.20;;;;;;;;;;5032242;28;20053;-86
2021/05/27 06:45:00;;;;;;;0.10;0.10;;;;;;;;;;5016159;28;20038;-86
2021/05/27 06:47:26;;;;;;;0.10;0.10;;;;;;;;;;5032525;28;20396;-85
2021/05/27 06:49:52;;;;;;;0.17;0.17;;;;;;;;;;5033795;28;20041;-85
2021/05/27 06:52:18;;;;;;;0.15;0.15;;;;;;;;;;5032407;28;20068;-85
2021/05/27 06:54:44;;;;;;;0.10;0.10;;;;;;;;;;5032014;28;20064;-85
2021/05/27 06:57:10;;;;;;;0.20;0.20;;;;;;;;;;5015972;28;20030;-85
2021/05/27 06:59:36;;;;;;;0.20;0.20;;;;;;;;;;5032332;28;20041;-85
2021/05/27 07:02:02;;;;;;;0.10;0.10;;;;;;;;;;5032485;28;20041;-84
2021/05/27 07:04:28;;;;;;;0.13;0.13;;;;;;;;;;5016054;28;20044;-86
2021/05/27 07:06:54;;;;;;;0.10;0.10;;;;;;;;;;5033377;28;20243;-85
2021/05/27 07:09:21;;;;;;;0.17;0.17;;;;;;;;;;5032265;28;20037;-85
2021/05/27 07:11:47;;;;;;;0.10;0.10;;;;;;;;;;5032221;28;20041;-86
2021/05/27 07:14:13;;;;;;;0.65;0.22;;;;;;;;;;5033318;28;20521;-85
2021/05/27 07:16:39;;;;;;;0.20;0.20;;;;;;;;;;5015557;28;20096;-85
2021/05/27 07:19:05;;;;;;;0.10;0.10;;;;;;;;;;5014629;28;20038;-85
2021/05/27 07:21:31;;;;;;;0.10;0.10;;;;;;;;;;5031863;28;20503;-86
2021/05/27 07:23:59;;;;;;;0.13;0.13;;;;;;;;;;5015736;28;20136;-86
2021/05/27 07:26:25;;;;;;;0.10;0.10;;;;;;;;;;5048645;28;20038;-86
2021/05/27 07:28:51;;;;;;;0.32;0.25;;;;;;;;;;5032944;28;20116;-86
2021/05/27 07:31:17;;;;;;;0.10;0.10;;;;;;;;;;5031697;28;20132;-87
2021/05/27 07:33:43;;;;;;;0.10;0.10;;;;;;;;;;5032275;28;20045;-89
2021/05/27 07:36:09;;;;;;;0.10;0.10;;;;;;;;;;5031580;28;20053;-89
2021/05/27 07:38:35;;;;;;;0.20;0.20;;;;;;;;;;5010213;28;1105293;-89
2021/05/27 07:41:01;;;;;;;0.13;0.13;;;;;;;;;;5033207;28;20042;-89
2021/05/27 07:43:29;;;;;;;0.20;0.20;;;;;;;;;;5033061;28;20042;-90
2021/05/27 07:45:55;;;;;;;0.20;0.20;;;;;;;;;;5049600;28;20037;-88
2021/05/27 07:48:21;;;;;;;0.10;0.10;;;;;;;;;;5032559;28;20041;-91
2021/05/27 07:50:47;;;;;;;0.10;0.10;;;;;;;;;;5032443;28;20146;-87
2021/05/27 07:53:16;;;;;;;0.10;0.10;;;;;;;;;;5040173;28;20381;-86
2021/05/27 07:55:43;;;;;;;0.20;0.20;;;;;;;;;;5032388;28;20072;-83
2021/05/27 07:58:09;;;;;;;0.77;0.77;;;;;;;;;;5033614;28;20041;-83
2021/05/27 08:00:35;;;;;;;0.10;0.10;;;;;;;;;;5032411;28;20041;-83
2021/05/27 08:03:01;;;;;;;0.20;0.20;;;;;;;;;;5048967;28;20056;-84
2021/05/27 08:05:27;;;;;;;0.20;0.20;;;;;;;;;;5048799;28;20434;-84
2021/05/27 08:07:53;;;;;;;0.10;0.10;;;;;;;;;;5032515;28;20417;-83
2021/05/27 08:10:19;;;;;;;0.32;0.32;;;;;;;;;;5048870;28;20037;-84
2021/05/27 08:12:45;;;;;;;0.20;0.20;;;;;;;;;;5032004;28;20100;-84
2021/05/27 08:15:12;;;;;;;0.10;0.10;;;;;;;;;;5048653;28;20041;-84
2021/05/27 08:17:38;;;;;;;0.10;0.10;;;;;;;;;;5032172;28;20037;-83
2021/05/27 08:20:04;;;;;;;0.10;0.10;;;;;;;;;;5031414;28;20041;-83
2021/05/27 08:22:30;;;;;;;0.40;0.40;;;;;;;;;;5032831;28;20088;-84
2021/05/27 08:24:57;;;;;;;0.30;0.30;;;;;;;;;;5048543;28;20060;-85
2021/05/27 08:27:23;;;;;;;0.10;0.10;;;;;;;;;;5032991;28;20495;-84
2021/05/27 08:29:49;;;;;;;0.10;0.10;;;;;;;;;;5048184;28;20042;-84
2021/05/27 08:32:15;;;;;;;0.10;0.10;;;;;;;;;;5031582;28;20033;-84
2021/05/27 08:34:41;;;;;;;0.10;0.10;;;;;;;;;;5032745;28;20576;-84
2021/05/27 08:37:07;;;;;;;0.20;0.20;;;;;;;;;;5048061;28;20116;-83
2021/05/27 08:39:33;;;;;;;0.10;0.10;;;;;;;;;;5047993;28;20053;-83
2021/05/27 08:42:00;;;;;;;0.10;0.10;;;;;;;;;;5048141;28;20497;-84
2021/05/27 08:44:27;;;;;;;0.10;0.10;;;;;;;;;;5047921;28;20045;-86
2021/05/27 08:46:54;;;;;;;0.20;0.20;;;;;;;;;;5047926;28;20370;-84
2021/05/27 08:49:20;;;;;;;0.10;0.10;;;;;;;;;;5047838;28;20037;-84
2021/05/27 08:51:46;;;;;;;0.10;0.10;;;;;;;;;;5048001;28;20383;-84
2021/05/27 08:54:12;;;;;;;0.10;0.10;;;;;;;;;;5031352;28;20043;-83
2021/05/27 08:56:38;;;;;;;0.20;0.20;;;;;;;;;;5047780;28;20041;-82
2021/05/27 08:59:04;;;;;;;0.13;0.13;;;;;;;;;;5031589;28;20140;-83
2021/05/27 09:01:31;;;;;;;0.13;0.13;;;;;;;;;;5047863;28;20496;-83
2021/05/27 09:03:57;;;;;;;0.10;0.10;;;;;;;;;;5031447;28;20037;-83
2021/05/27 09:06:23;;;;;;;0.20;0.20;;;;;;;;;;5047594;28;20037;-85
2021/05/27 09:08:49;;;;;;;0.10;0.10;;;;;;;;;;5032368;28;20041;-84
2021/05/27 09:11:16;;;;;;;0.10;0.10;;;;;;;;;;5047681;28;20110;-84
2021/05/27 09:13:51;;;;;;;1.08;0.20;;;;;;;;;;5031266;28;20086;-83
2021/05/27 09:16:18;;;;;;;0.10;0.10;;;;;;;;;;5032162;28;20120;-84
2021/05/27 09:18:44;;;;;;;0.10;0.10;;;;;;;;;;5047381;28;20552;-84
2021/05/27 09:21:11;;;;;;;0.20;0.20;;;;;;;;;;5032174;28;20079;-83
2021/05/27 09:23:37;;;;;;;0.10;0.10;;;;;;;;;;5047509;28;20057;-84
2021/05/27 09:26:14;;;;;;;0.10;0.10;;;;;;;;;;5047577;28;20045;-83
2021/05/27 09:28:40;;;;;;;0.10;0.10;;;;;;;;;;5046773;28;20128;-84
2021/05/27 09:31:17;;;;;;;0.10;0.10;;;;;;;;;;5047428;28;20037;-84
2021/05/27 09:33:46;;;;;;;0.10;0.10;;;;;;;;;;5047283;28;20444;-83
2021/05/27 09:36:12;;;;;;;1.55;0.20;;;;;;;;;;5030814;28;20038;-83
2021/05/27 09:38:42;;;;;;;0.10;0.10;;;;;;;;;;5031791;28;20062;-83
2021/05/27 09:41:34;;;;;;;0.10;0.10;;;;;;;;;;5031815;28;20473;-83
2021/05/27 09:44:06;;;;;;;0.10;0.10;;;;;;;;;;5027593;28;20050;-83
2021/05/27 09:46:47;;;;;;;0.15;0.15;;;;;;;;;;5031838;28;20104;-83
2021/05/27 09:49:13;;;;;;;0.10;0.10;;;;;;;;;;5047212;28;20049;-83
2021/05/27 09:51:39;;;;;;;0.10;0.10;;;;;;;;;;5031785;28;20041;-84
2021/05/27 09:54:08;;;;;;;0.10;0.10;;;;;;;;;;5046850;28;20113;-84
2021/05/27 09:56:41;;;;;;;0.20;0.20;;;;;;;;;;5047116;28;20041;-83
2021/05/27 09:59:07;;;;;;;0.20;0.20;;;;;;;;;;5047255;28;20041;-84
2021/05/27 10:01:33;;;;;;;0.13;0.13;;;;;;;;;;5047143;28;20041;-84
2021/05/27 10:04:26;;;;;;;0.20;0.20;;;;;;;;;;5047092;28;20041;-84
2021/05/27 10:06:52;;;;;;;0.22;0.20;;;;;;;;;;5028940;28;20046;-84
2021/05/27 10:09:18;;;;;;;0.10;0.10;;;;;;;;;;5046831;28;20378;-84
2021/05/27 10:11:44;;;;;;;0.10;0.10;;;;;;;;;;5031667;28;20041;-84
2021/05/27 10:14:11;;;;;;;0.10;0.10;;;;;;;;;;5047028;28;20439;-84
2021/05/27 10:16:37;;;;;;;0.10;0.10;;;;;;;;;;5030195;28;20041;-83
2021/05/27 10:19:04;;;;;;;0.10;0.10;;;;;;;;;;5030443;28;20049;-84
2021/05/27 10:21:30;;;;;;;0.20;0.20;;;;;;;;;;5032881;28;20114;-83
2021/05/27 10:23:56;;;;;;;0.10;0.10;;;;;;;;;;5047934;28;20388;-85
2021/05/27 10:26:23;;;;;;;0.10;0.10;;;;;;;;;;5030393;28;20042;-84
2021/05/27 10:28:50;;;;;;;0.20;0.20;;;;;;;;;;5031495;28;20060;-84
2021/05/27 10:31:16;;;;;;;0.10;0.10;;;;;;;;;;5049742;28;20045;-83
2021/05/27 10:33:42;;;;;;;0.10;0.10;;;;;;;;;;5050573;28;20045;-84
2021/05/27 10:36:09;;;;;;;0.10;0.10;;;;;;;;;;5035031;28;20037;-84
2021/05/27 10:38:38;;;;;;;0.10;0.10;;;;;;;;;;5050321;28;20053;-83
2021/05/27 10:41:05;;;;;;;0.10;0.10;;;;;;;;;;5033766;28;20053;-83
2021/05/27 10:43:32;;;;;;;0.20;0.20;;;;;;;;;;5050352;28;20037;-84
2021/05/27 10:46:04;;;;;;;0.10;0.10;;;;;;;;;;5050090;28;20037;-84
2021/05/27 10:48:41;;;;;;;5.78;0.52;;;;;;;;;;5034959;28;20437;-84
2021/05/27 10:51:49;;;;;;;0.20;0.20;;;;;;;;;;5034866;28;20091;-83
2021/05/27 10:54:00;;;;;;;0.10;0.10;;;;;;;;;;5036706;28;20061;-83
2021/05/27 10:56:37;;;;;;;0.10;0.10;;;;;;;;;;5050016;28;20081;-83
2021/05/27 10:59:04;;;;;;;0.10;0.10;;;;;;;;;;5034891;28;20120;-84
2021/05/27 11:01:36;;;;;;;0.10;0.10;;;;;;;;;;5034779;28;20063;-84
2021/05/27 11:04:05;;;;;;;0.10;0.10;;;;;;;;;;5034680;28;20043;-85
2021/05/27 11:06:38;;;;;;;0.10;0.10;;;;;;;;;;5049785;28;20069;-84
2021/05/27 11:09:13;;;;;;;0.10;0.10;;;;;;;;;;5049913;28;20037;-84
2021/05/27 11:11:44;;;;;;;0.22;0.22;;;;;;;;;;5033255;28;20107;-85
2021/05/27 11:14:16;;;;;;;0.10;0.10;;;;;;;;;;5033296;28;20491;-85
2021/05/27 11:17:01;;;;;;;0.20;0.20;;;;;;;;;;5033109;28;20041;-85
2021/05/27 11:19:45;;;;;;;0.20;0.20;;;;;;;;;;5033069;28;20115;-85
2021/05/27 11:25:24;;;;;;;0.10;0.10;;;;;;;;;;5034114;28;20042;-85
2021/05/27 11:27:52;;;;;;;0.10;0.10;;;;;;;;;;5033957;28;20435;-85
2021/05/27 11:30:25;;;;;;;0.10;0.10;;;;;;;;;;5049318;28;20137;-84
2021/05/27 11:32:55;;;;;;;0.20;0.20;;;;;;;;;;5049596;28;20048;-83
2021/05/27 11:35:24;;;;;;;0.20;0.20;;;;;;;;;;5049005;28;20099;-85
2021/05/27 11:37:50;;;;;;;0.10;0.10;;;;;;;;;;5030828;28;20109;-83
2021/05/27 11:40:17;;;;;;;0.10;0.10;;;;;;;;;;5033834;28;20069;-84
2021/05/27 11:42:47;;;;;;;0.10;0.10;;;;;;;;;;5026681;28;20045;-85
2021/05/27 11:45:13;;;;;;;0.10;0.10;;;;;;;;;;5012981;28;20155;-85
2021/05/27 11:47:39;;;;;;;0.30;0.30;;;;;;;;;;4996362;28;20042;-84
2021/05/27 11:50:06;;;;;;;0.20;0.20;;;;;;;;;;5014271;28;20107;-83
2021/05/27 11:52:32;;;;;;;0.10;0.10;;;;;;;;;;5016963;28;20441;-84
2021/05/27 11:54:58;;;;;;;0.20;0.20;;;;;;;;;;5029936;28;20034;-84
2021/05/27 11:57:40;;;;;;;0.10;0.10;;;;;;;;;;5016433;28;20470;-85
2021/05/27 12:00:07;;;;;;;0.20;0.20;;;;;;;;;;5012753;28;20037;-84
2021/05/27 12:02:49;;;;;;;0.20;0.20;;;;;;;;;;5012642;28;20050;-84
2021/05/27 12:05:27;;;;;;;0.10;0.10;;;;;;;;;;5012466;28;20065;-84
2021/05/27 12:08:04;;;;;;;0.10;0.10;;;;;;;;;;5012274;28;20052;-85
2021/05/27 12:10:31;;;;;;;0.10;0.10;;;;;;;;;;5013574;28;20053;-86
2021/05/27 12:12:57;;;;;;;0.10;0.10;;;;;;;;;;5012239;28;20042;-83
2021/05/27 12:15:23;;;;;;;0.10;0.10;;;;;;;;;;5012256;28;20046;-82
2021/05/27 12:17:50;;;;;;;1.48;1.38;;;;;;;;;;5012123;28;20149;-82
2021/05/27 12:20:18;;;;;;;0.10;0.10;;;;;;;;;;5012179;28;20069;-82
2021/05/27 12:22:45;;;;;;;0.20;0.20;;;;;;;;;;5013227;28;20038;-83
2021/05/27 12:25:12;;;;;;;0.20;0.20;;;;;;;;;;5047887;28;20393;-82
2021/05/27 12:27:39;;;;;;;0.20;0.20;;;;;;;;;;5048346;28;20303;-82
2021/05/27 12:30:05;;;;;;;0.10;0.10;;;;;;;;;;5048295;28;20429;-83
2021/05/27 12:32:31;;;;;;;0.10;0.10;;;;;;;;;;5032883;28;20037;-84
2021/05/27 12:34:57;;;;;;;0.15;0.15;;;;;;;;;;5031621;28;20037;-86
2021/05/27 12:37:36;;;;;;;0.10;0.10;;;;;;;;;;5032753;28;20041;-86
2021/05/27 12:40:08;;;;;;;0.10;0.10;;;;;;;;;;5032671;28;20144;-86
2021/05/27 12:42:35;;;;;;;0.15;0.15;;;;;;;;;;5048377;28;20075;-85
2021/05/27 12:45:01;;;;;;;0.10;0.10;;;;;;;;;;5032743;28;20099;-85
2021/05/27 12:47:27;;;;;;;0.20;0.20;;;;;;;;;;5031237;28;20037;-85
2021/05/27 12:49:53;;;;;;;0.10;0.10;;;;;;;;;;5031387;28;20103;-85
2021/05/27 12:52:36;;;;;;;0.10;0.10;;;;;;;;;;5047271;28;20489;-84
2021/05/27 12:55:03;;;;;;;0.10;0.10;;;;;;;;;;5032509;28;20357;-84
2021/05/27 12:57:29;;;;;;;0.10;0.10;;;;;;;;;;5047699;28;20034;-84
2021/05/27 12:59:56;;;;;;;0.10;0.10;;;;;;;;;;5031335;28;20499;-84
2021/05/27 13:02:26;;;;;;;0.20;0.20;;;;;;;;;;5031162;28;20039;-83
2021/05/27 13:04:52;;;;;;;0.10;0.10;;;;;;;;;;5043429;28;20499;-83
2021/05/27 13:07:18;;;;;;;0.10;0.10;;;;;;;;;;5022098;28;20041;-83
2021/05/27 13:09:53;;;;;;;0.10;0.10;;;;;;;;;;5013133;28;20057;-84
2021/05/27 13:12:20;;;;;;;0.32;0.32;;;;;;;;;;5030562;28;20120;-83
2021/05/27 13:15:00;;;;;;;0.10;0.10;;;;;;;;;;5027453;28;20046;-84
2021/05/27 13:17:26;;;;;;;0.38;0.38;;;;;;;;;;5011329;28;20119;-84
2021/05/27 13:19:56;;;;;;;0.10;0.10;;;;;;;;;;5042386;28;20037;-85
2021/05/27 13:22:26;;;;;;;0.10;0.10;;;;;;;;;;5032753;28;20045;-84
2021/05/27 13:24:56;;;;;;;0.10;0.10;;;;;;;;;;5030955;28;20116;-85
2021/05/27 13:27:26;;;;;;;0.10;0.10;;;;;;;;;;5030780;28;20042;-84
2021/05/27 13:29:56;;;;;;;0.20;0.20;;;;;;;;;;5031006;28;20038;-84
2021/05/27 13:32:23;;;;;;;0.10;0.10;;;;;;;;;;5030740;28;20045;-84
2021/05/27 13:34:50;;;;;;;0.17;0.13;;;;;;;;;;5014709;28;20113;-84
2021/05/27 13:37:24;;;;;;;0.10;0.10;;;;;;;;;;4998027;28;20104;-84
2021/05/27 13:39:50;;;;;;;0.15;0.15;;;;;;;;;;5031885;28;20053;-85
2021/05/27 13:42:16;;;;;;;0.10;0.10;;;;;;;;;;5030899;28;20033;-86
2021/05/27 13:44:42;;;;;;;0.20;0.20;;;;;;;;;;5014671;28;20057;-85
2021/05/27 13:47:08;;;;;;;0.20;0.20;;;;;;;;;;5031681;28;20446;-86
2021/05/27 13:49:34;;;;;;;0.20;0.20;;;;;;;;;;5030754;28;20041;-86
2021/05/27 13:52:02;;;;;;;0.10;0.10;;;;;;;;;;5030713;28;20037;-86
2021/05/27 13:54:28;;;;;;;0.20;0.20;;;;;;;;;;5014625;28;20042;-83
2021/05/27 13:56:54;;;;;;;0.10;0.10;;;;;;;;;;5031833;28;20440;-84
2021/05/27 13:59:22;;;;;;;0.10;0.10;;;;;;;;;;5030603;28;20046;-83
2021/05/27 14:01:48;;;;;;;0.10;0.10;;;;;;;;;;5030663;28;20037;-83
2021/05/27 14:04:14;;;;;;;0.10;0.10;;;;;;;;;;5030687;28;20069;-83
2021/05/27 14:06:40;;;;;;;0.10;0.10;;;;;;;;;;5035894;28;20041;-83
2021/05/27 14:09:07;;;;;;;0.10;0.10;;;;;;;;;;5034475;28;20044;-83
2021/05/27 14:11:33;;;;;;;0.10;0.10;;;;;;;;;;5034482;28;20045;-84
2021/05/27 14:13:59;;;;;;;0.20;0.20;;;;;;;;;;5035506;28;20120;-84
2021/05/27 14:16:25;;;;;;;0.10;0.10;;;;;;;;;;5031155;28;20048;-83
2021/05/27 14:18:51;;;;;;;0.10;0.10;;;;;;;;;;5018849;28;20152;-83
2021/05/27 14:21:17;;;;;;;0.10;0.10;;;;;;;;;;5030034;28;20469;-82
2021/05/27 14:23:43;;;;;;;0.13;0.13;;;;;;;;;;5038063;28;20048;-83
2021/05/27 14:26:09;;;;;;;0.10;0.10;;;;;;;;;;5015885;28;20038;-83
2021/05/27 14:28:35;;;;;;;0.10;0.10;;;;;;;;;;5014145;28;20088;-82
2021/05/27 14:31:01;;;;;;;0.10;0.10;;;;;;;;;;5014288;28;20053;-83
2021/05/27 14:33:27;;;;;;;0.10;0.10;;;;;;;;;;4997957;28;20121;-82
2021/05/27 14:35:53;;;;;;;0.10;0.10;;;;;;;;;;5015467;28;20180;-83
2021/05/27 14:38:19;;;;;;;0.10;0.10;;;;;;;;;;5015263;28;20077;-83
2021/05/27 14:40:45;;;;;;;0.10;0.10;;;;;;;;;;5014337;28;20548;-81
2021/05/27 14:43:12;;;;;;;0.10;0.10;;;;;;;;;;5030573;28;20069;-84
2021/05/27 14:45:38;;;;;;;0.10;0.10;;;;;;;;;;5015319;28;20042;-83
2021/05/27 14:48:04;;;;;;;0.10;0.10;;;;;;;;;;5015127;28;20064;-83
2021/05/27 14:50:30;;;;;;;0.10;0.10;;;;;;;;;;5014068;28;20042;-82
2021/05/27 14:53:00;;;;;;;0.10;0.10;;;;;;;;;;5015161;28;20116;-83
2021/05/27 14:55:27;;;;;;;0.10;0.10;;;;;;;;;;5015091;28;20038;-82